sensor_id;sensor_type;location;lat;lon;timestamp;pressure;altitude;pressure_sealevel;temperature;humidity
38812;BME280;24553;51.640;-0.752;2023-01-09T00:02:03;98254.78;;;4.27;100.00
38812;BME280;24553;51.640;-0.752;2023-01-09T00:04:29;98259.81;;;4.28;100.00
38812;BME280;24553;51.640;-0.752;2023-01-09T00:06:54;98260.81;;;4.21;100.00
38812;BME280;24553;51.640;-0.752;2023-01-09T00:09:21;98265.69;;;4.10;100.00
38812;BME280;24553;51.640;-0.752;2023-01-09T00:11:47;98273.38;;;4.05;100.00
38812;BME280;24553;51.640;-0.752;2023-01-09T00:14:14;98275.78;;;3.93;100.00
38812;BME280;24553;51.640;-0.752;2023-01-09T00:16:40;98280.44;;;3.85;100.00
38812;BME280;24553;51.640;-0.752;2023-01-09T00:19:05;98288.69;;;3.82;100.00
38812;BME280;24553;51.640;-0.752;2023-01-09T00:21:31;98297.38;;;3.82;100.00
38812;BME280;24553;51.640;-0.752;2023-01-09T00:23:56;98290.31;;;3.83;100.00
38812;BME280;24553;51.640;-0.752;2023-01-09T00:26:22;98299.59;;;3.85;100.00
38812;BME280;24553;51.640;-0.752;2023-01-09T00:28:49;98306.25;;;3.88;100.00
38812;BME280;24553;51.640;-0.752;2023-01-09T00:31:16;98308.44;;;3.84;100.00
38812;BME280;24553;51.640;-0.752;2023-01-09T00:33:44;98311.28;;;3.83;100.00
38812;BME280;24553;51.640;-0.752;2023-01-09T00:36:10;98315.72;;;3.89;100.00
38812;BME280;24553;51.640;-0.752;2023-01-09T00:38:36;98323.19;;;3.99;100.00
38812;BME280;24553;51.640;-0.752;2023-01-09T00:41:03;98336.69;;;4.02;100.00
38812;BME280;24553;51.640;-0.752;2023-01-09T00:43:32;98331.66;;;4.01;100.00
38812;BME280;24553;51.640;-0.752;2023-01-09T00:46:02;98340.16;;;4.03;100.00
38812;BME280;24553;51.640;-0.752;2023-01-09T00:48:31;98335.47;;;4.05;100.00
38812;BME280;24553;51.640;-0.752;2023-01-09T00:50:58;98351.84;;;4.00;100.00
38812;BME280;24553;51.640;-0.752;2023-01-09T00:53:30;98363.13;;;4.01;100.00
38812;BME280;24553;51.640;-0.752;2023-01-09T00:56:02;98364.97;;;4.13;100.00
38812;BME280;24553;51.640;-0.752;2023-01-09T00:58:28;98371.81;;;4.28;100.00
38812;BME280;24553;51.640;-0.752;2023-01-09T01:00:55;98373.44;;;4.42;100.00
38812;BME280;24553;51.640;-0.752;2023-01-09T01:03:21;98386.97;;;4.52;100.00
38812;BME280;24553;51.640;-0.752;2023-01-09T01:05:46;98390.56;;;4.71;100.00
38812;BME280;24553;51.640;-0.752;2023-01-09T01:08:30;98401.84;;;4.92;100.00
38812;BME280;24553;51.640;-0.752;2023-01-09T01:10:55;98398.56;;;5.03;100.00
38812;BME280;24553;51.640;-0.752;2023-01-09T01:13:21;98396.78;;;5.03;100.00
38812;BME280;24553;51.640;-0.752;2023-01-09T01:15:46;98398.75;;;5.21;100.00
38812;BME280;24553;51.640;-0.752;2023-01-09T01:18:12;98405.75;;;5.34;100.00
38812;BME280;24553;51.640;-0.752;2023-01-09T01:20:42;98416.88;;;5.36;100.00
38812;BME280;24553;51.640;-0.752;2023-01-09T01:23:07;98423.41;;;5.27;100.00
38812;BME280;24553;51.640;-0.752;2023-01-09T01:25:37;98425.22;;;5.20;100.00
38812;BME280;24553;51.640;-0.752;2023-01-09T01:28:04;98433.09;;;5.20;100.00
38812;BME280;24553;51.640;-0.752;2023-01-09T01:30:30;98440.16;;;5.26;100.00
38812;BME280;24553;51.640;-0.752;2023-01-09T01:32:55;98446.44;;;5.25;100.00
38812;BME280;24553;51.640;-0.752;2023-01-09T01:35:21;98452.44;;;5.39;100.00
38812;BME280;24553;51.640;-0.752;2023-01-09T01:37:46;98447.00;;;5.34;100.00
38812;BME280;24553;51.640;-0.752;2023-01-09T01:40:14;98455.69;;;5.41;100.00
38812;BME280;24553;51.640;-0.752;2023-01-09T01:42:47;98455.44;;;5.49;100.00
38812;BME280;24553;51.640;-0.752;2023-01-09T01:45:25;98459.06;;;5.55;100.00
38812;BME280;24553;51.640;-0.752;2023-01-09T01:55:41;98478.16;;;5.30;100.00
38812;BME280;24553;51.640;-0.752;2023-01-09T01:58:09;98473.75;;;5.17;100.00
38812;BME280;24553;51.640;-0.752;2023-01-09T02:00:42;98482.03;;;5.14;100.00
38812;BME280;24553;51.640;-0.752;2023-01-09T02:03:08;98480.81;;;5.17;100.00
38812;BME280;24553;51.640;-0.752;2023-01-09T02:05:35;98490.91;;;5.13;100.00
38812;BME280;24553;51.640;-0.752;2023-01-09T02:08:02;98485.88;;;5.12;100.00
38812;BME280;24553;51.640;-0.752;2023-01-09T02:10:29;98483.66;;;4.95;100.00
38812;BME280;24553;51.640;-0.752;2023-01-09T02:12:54;98493.56;;;4.73;100.00
38812;BME280;24553;51.640;-0.752;2023-01-09T02:15:20;98494.78;;;4.57;100.00
38812;BME280;24553;51.640;-0.752;2023-01-09T02:17:56;98509.94;;;4.62;100.00
38812;BME280;24553;51.640;-0.752;2023-01-09T02:20:34;98528.69;;;4.52;100.00
38812;BME280;24553;51.640;-0.752;2023-01-09T02:23:52;98526.47;;;4.56;100.00
38812;BME280;24553;51.640;-0.752;2023-01-09T02:34:08;98530.91;;;4.55;100.00
38812;BME280;24553;51.640;-0.752;2023-01-09T02:39:32;98535.28;;;4.28;100.00
38812;BME280;24553;51.640;-0.752;2023-01-09T02:42:10;98532.44;;;4.17;100.00
38812;BME280;24553;51.640;-0.752;2023-01-09T02:44:38;98543.88;;;4.02;100.00
38812;BME280;24553;51.640;-0.752;2023-01-09T02:49:54;98550.88;;;3.88;100.00
38812;BME280;24553;51.640;-0.752;2023-01-09T03:03:34;98569.22;;;3.54;100.00
38812;BME280;24553;51.640;-0.752;2023-01-09T03:09:18;98583.25;;;3.39;100.00
38812;BME280;24553;51.640;-0.752;2023-01-09T03:11:51;98592.97;;;3.45;100.00
38812;BME280;24553;51.640;-0.752;2023-01-09T03:14:20;98585.94;;;3.46;100.00
38812;BME280;24553;51.640;-0.752;2023-01-09T03:16:51;98601.22;;;3.42;100.00
38812;BME280;24553;51.640;-0.752;2023-01-09T03:19:21;98606.28;;;3.44;100.00
38812;BME280;24553;51.640;-0.752;2023-01-09T03:21:48;98622.69;;;3.31;100.00
38812;BME280;24553;51.640;-0.752;2023-01-09T03:24:14;98618.56;;;3.43;100.00
38812;BME280;24553;51.640;-0.752;2023-01-09T03:26:39;98616.75;;;3.44;100.00
38812;BME280;24553;51.640;-0.752;2023-01-09T03:29:05;98619.50;;;3.36;100.00
38812;BME280;24553;51.640;-0.752;2023-01-09T03:31:30;98620.47;;;3.28;100.00
38812;BME280;24553;51.640;-0.752;2023-01-09T03:33:56;98623.34;;;3.40;100.00
38812;BME280;24553;51.640;-0.752;2023-01-09T03:36:23;98629.41;;;3.68;100.00
38812;BME280;24553;51.640;-0.752;2023-01-09T03:38:49;98634.69;;;3.75;100.00
38812;BME280;24553;51.640;-0.752;2023-01-09T03:41:15;98632.66;;;3.70;100.00
38812;BME280;24553;51.640;-0.752;2023-01-09T03:43:41;98642.00;;;3.80;100.00
38812;BME280;24553;51.640;-0.752;2023-01-09T03:46:06;98638.28;;;3.67;100.00
38812;BME280;24553;51.640;-0.752;2023-01-09T03:48:31;98642.81;;;3.52;100.00
38812;BME280;24553;51.640;-0.752;2023-01-09T03:50:57;98637.31;;;3.47;100.00
38812;BME280;24553;51.640;-0.752;2023-01-09T03:53:25;98652.28;;;3.53;100.00
38812;BME280;24553;51.640;-0.752;2023-01-09T03:55:53;98657.59;;;3.66;100.00
38812;BME280;24553;51.640;-0.752;2023-01-09T03:58:19;98662.44;;;3.91;100.00
38812;BME280;24553;51.640;-0.752;2023-01-09T04:00:45;98667.97;;;4.09;100.00
38812;BME280;24553;51.640;-0.752;2023-01-09T04:03:13;98672.50;;;4.22;100.00
38812;BME280;24553;51.640;-0.752;2023-01-09T04:05:39;98675.28;;;4.21;100.00
38812;BME280;24553;51.640;-0.752;2023-01-09T04:08:04;98686.47;;;4.36;100.00
38812;BME280;24553;51.640;-0.752;2023-01-09T04:10:30;98686.53;;;4.43;100.00
38812;BME280;24553;51.640;-0.752;2023-01-09T04:12:55;98689.53;;;4.40;100.00
38812;BME280;24553;51.640;-0.752;2023-01-09T04:15:21;98696.56;;;4.32;100.00
38812;BME280;24553;51.640;-0.752;2023-01-09T04:17:46;98709.28;;;4.35;100.00
38812;BME280;24553;51.640;-0.752;2023-01-09T04:20:12;98704.72;;;4.44;100.00
38812;BME280;24553;51.640;-0.752;2023-01-09T04:22:38;98706.09;;;4.40;100.00
38812;BME280;24553;51.640;-0.752;2023-01-09T04:25:04;98704.09;;;4.42;100.00
38812;BME280;24553;51.640;-0.752;2023-01-09T04:27:29;98702.06;;;4.09;100.00
38812;BME280;24553;51.640;-0.752;2023-01-09T04:29:55;98707.88;;;3.98;100.00
38812;BME280;24553;51.640;-0.752;2023-01-09T04:32:20;98714.16;;;4.04;100.00
38812;BME280;24553;51.640;-0.752;2023-01-09T04:34:46;98710.44;;;3.91;100.00
38812;BME280;24553;51.640;-0.752;2023-01-09T04:37:11;98721.78;;;3.99;100.00
38812;BME280;24553;51.640;-0.752;2023-01-09T04:39:36;98714.66;;;4.21;100.00
38812;BME280;24553;51.640;-0.752;2023-01-09T04:42:02;98720.19;;;4.32;100.00
38812;BME280;24553;51.640;-0.752;2023-01-09T04:44:28;98718.91;;;4.22;100.00
38812;BME280;24553;51.640;-0.752;2023-01-09T04:46:55;98726.25;;;4.05;100.00
38812;BME280;24553;51.640;-0.752;2023-01-09T04:49:21;98729.72;;;4.05;100.00
38812;BME280;24553;51.640;-0.752;2023-01-09T04:51:47;98733.41;;;3.89;100.00
38812;BME280;24553;51.640;-0.752;2023-01-09T04:54:12;98738.78;;;3.81;100.00
38812;BME280;24553;51.640;-0.752;2023-01-09T04:56:38;98742.91;;;3.90;100.00
38812;BME280;24553;51.640;-0.752;2023-01-09T04:59:04;98742.09;;;3.90;100.00
38812;BME280;24553;51.640;-0.752;2023-01-09T05:01:30;98741.75;;;4.00;100.00
38812;BME280;24553;51.640;-0.752;2023-01-09T05:03:56;98750.53;;;4.13;100.00
38812;BME280;24553;51.640;-0.752;2023-01-09T05:06:22;98747.44;;;4.03;100.00
38812;BME280;24553;51.640;-0.752;2023-01-09T05:08:47;98746.66;;;4.09;100.00
38812;BME280;24553;51.640;-0.752;2023-01-09T05:11:12;98746.00;;;4.29;100.00
38812;BME280;24553;51.640;-0.752;2023-01-09T05:13:38;98760.03;;;4.14;100.00
38812;BME280;24553;51.640;-0.752;2023-01-09T05:16:03;98759.50;;;3.98;100.00
38812;BME280;24553;51.640;-0.752;2023-01-09T05:18:29;98767.06;;;3.86;100.00
38812;BME280;24553;51.640;-0.752;2023-01-09T05:20:54;98775.22;;;3.69;100.00
38812;BME280;24553;51.640;-0.752;2023-01-09T05:23:19;98773.56;;;3.68;100.00
38812;BME280;24553;51.640;-0.752;2023-01-09T05:25:44;98773.16;;;3.65;100.00
38812;BME280;24553;51.640;-0.752;2023-01-09T05:28:10;98774.13;;;3.64;100.00
38812;BME280;24553;51.640;-0.752;2023-01-09T05:30:35;98781.88;;;3.72;100.00
38812;BME280;24553;51.640;-0.752;2023-01-09T05:33:01;98785.81;;;3.83;100.00
38812;BME280;24553;51.640;-0.752;2023-01-09T05:35:26;98791.28;;;3.88;100.00
38812;BME280;24553;51.640;-0.752;2023-01-09T05:37:51;98795.84;;;3.79;100.00
38812;BME280;24553;51.640;-0.752;2023-01-09T05:40:17;98801.91;;;3.80;100.00
38812;BME280;24553;51.640;-0.752;2023-01-09T05:42:43;98799.34;;;3.86;100.00
38812;BME280;24553;51.640;-0.752;2023-01-09T05:45:09;98808.63;;;3.89;100.00
38812;BME280;24553;51.640;-0.752;2023-01-09T05:47:35;98819.00;;;3.97;100.00
38812;BME280;24553;51.640;-0.752;2023-01-09T05:50:01;98818.25;;;4.03;100.00
38812;BME280;24553;51.640;-0.752;2023-01-09T05:52:26;98821.84;;;4.02;100.00
38812;BME280;24553;51.640;-0.752;2023-01-09T05:54:51;98814.75;;;3.96;100.00
38812;BME280;24553;51.640;-0.752;2023-01-09T05:57:17;98824.50;;;3.81;100.00
38812;BME280;24553;51.640;-0.752;2023-01-09T05:59:42;98821.06;;;3.59;100.00
38812;BME280;24553;51.640;-0.752;2023-01-09T06:02:07;98830.97;;;3.63;100.00
38812;BME280;24553;51.640;-0.752;2023-01-09T06:04:33;98839.91;;;3.47;100.00
38812;BME280;24553;51.640;-0.752;2023-01-09T06:06:58;98840.53;;;3.49;100.00
38812;BME280;24553;51.640;-0.752;2023-01-09T06:09:24;98838.47;;;3.45;100.00
38812;BME280;24553;51.640;-0.752;2023-01-09T06:11:49;98839.88;;;3.26;100.00
38812;BME280;24553;51.640;-0.752;2023-01-09T06:14:15;98838.72;;;3.14;100.00
38812;BME280;24553;51.640;-0.752;2023-01-09T06:16:40;98850.34;;;3.26;100.00
38812;BME280;24553;51.640;-0.752;2023-01-09T06:19:05;98854.47;;;3.35;100.00
38812;BME280;24553;51.640;-0.752;2023-01-09T06:21:32;98860.22;;;3.45;100.00
38812;BME280;24553;51.640;-0.752;2023-01-09T06:23:57;98861.78;;;3.40;100.00
38812;BME280;24553;51.640;-0.752;2023-01-09T06:26:26;98865.03;;;3.42;100.00
38812;BME280;24553;51.640;-0.752;2023-01-09T06:28:51;98858.53;;;3.38;100.00
38812;BME280;24553;51.640;-0.752;2023-01-09T06:31:20;98860.53;;;3.36;100.00
38812;BME280;24553;51.640;-0.752;2023-01-09T06:33:45;98857.34;;;3.40;100.00
38812;BME280;24553;51.640;-0.752;2023-01-09T06:36:11;98859.63;;;3.43;100.00
38812;BME280;24553;51.640;-0.752;2023-01-09T06:38:36;98865.41;;;3.39;100.00
38812;BME280;24553;51.640;-0.752;2023-01-09T06:41:01;98863.03;;;3.44;100.00
38812;BME280;24553;51.640;-0.752;2023-01-09T06:43:27;98870.00;;;3.52;100.00
38812;BME280;24553;51.640;-0.752;2023-01-09T06:45:52;98876.53;;;3.41;100.00
38812;BME280;24553;51.640;-0.752;2023-01-09T06:48:17;98877.22;;;3.35;100.00
38812;BME280;24553;51.640;-0.752;2023-01-09T06:50:43;98883.53;;;3.40;100.00
38812;BME280;24553;51.640;-0.752;2023-01-09T06:53:09;98883.13;;;3.22;100.00
38812;BME280;24553;51.640;-0.752;2023-01-09T06:55:35;98889.91;;;3.01;100.00
38812;BME280;24553;51.640;-0.752;2023-01-09T06:58:00;98889.09;;;2.86;100.00
38812;BME280;24553;51.640;-0.752;2023-01-09T07:00:26;98896.69;;;2.96;100.00
38812;BME280;24553;51.640;-0.752;2023-01-09T07:02:51;98900.00;;;3.04;100.00
38812;BME280;24553;51.640;-0.752;2023-01-09T07:05:17;98895.59;;;3.20;100.00
38812;BME280;24553;51.640;-0.752;2023-01-09T07:07:42;98907.88;;;3.19;100.00
38812;BME280;24553;51.640;-0.752;2023-01-09T07:10:08;98912.50;;;3.02;100.00
38812;BME280;24553;51.640;-0.752;2023-01-09T07:12:34;98920.88;;;2.83;100.00
38812;BME280;24553;51.640;-0.752;2023-01-09T07:14:59;98919.78;;;2.77;100.00
38812;BME280;24553;51.640;-0.752;2023-01-09T07:17:25;98920.78;;;2.76;100.00
38812;BME280;24553;51.640;-0.752;2023-01-09T07:19:50;98927.19;;;2.74;100.00
38812;BME280;24553;51.640;-0.752;2023-01-09T07:22:16;98928.97;;;2.73;100.00
38812;BME280;24553;51.640;-0.752;2023-01-09T07:24:41;98940.72;;;2.77;100.00
38812;BME280;24553;51.640;-0.752;2023-01-09T07:27:09;98944.34;;;2.76;100.00
38812;BME280;24553;51.640;-0.752;2023-01-09T07:29:34;98962.84;;;2.75;100.00
38812;BME280;24553;51.640;-0.752;2023-01-09T07:31:59;98968.38;;;2.95;100.00
38812;BME280;24553;51.640;-0.752;2023-01-09T07:34:25;98972.69;;;2.88;100.00
38812;BME280;24553;51.640;-0.752;2023-01-09T07:36:50;98971.88;;;2.87;100.00
38812;BME280;24553;51.640;-0.752;2023-01-09T07:39:15;98974.09;;;2.75;100.00
38812;BME280;24553;51.640;-0.752;2023-01-09T07:41:41;98977.22;;;2.79;100.00
38812;BME280;24553;51.640;-0.752;2023-01-09T07:44:06;98977.94;;;2.88;100.00
38812;BME280;24553;51.640;-0.752;2023-01-09T07:46:32;98979.19;;;2.92;100.00
38812;BME280;24553;51.640;-0.752;2023-01-09T07:48:57;98989.41;;;2.87;100.00
38812;BME280;24553;51.640;-0.752;2023-01-09T07:51:23;98991.63;;;2.75;100.00
38812;BME280;24553;51.640;-0.752;2023-01-09T07:53:48;98999.25;;;2.84;100.00
38812;BME280;24553;51.640;-0.752;2023-01-09T07:56:14;99006.75;;;3.17;100.00
38812;BME280;24553;51.640;-0.752;2023-01-09T07:58:39;99024.78;;;3.50;100.00
38812;BME280;24553;51.640;-0.752;2023-01-09T08:01:05;99021.78;;;3.68;100.00
38812;BME280;24553;51.640;-0.752;2023-01-09T08:03:31;99038.16;;;3.85;100.00
38812;BME280;24553;51.640;-0.752;2023-01-09T08:05:58;99045.53;;;3.96;100.00
38812;BME280;24553;51.640;-0.752;2023-01-09T08:08:23;99045.00;;;4.01;100.00
38812;BME280;24553;51.640;-0.752;2023-01-09T08:10:49;99041.38;;;4.02;100.00
38812;BME280;24553;51.640;-0.752;2023-01-09T08:13:14;99059.72;;;4.02;100.00
38812;BME280;24553;51.640;-0.752;2023-01-09T08:15:40;99056.56;;;3.91;100.00
38812;BME280;24553;51.640;-0.752;2023-01-09T08:18:05;99061.38;;;4.03;100.00
38812;BME280;24553;51.640;-0.752;2023-01-09T08:20:30;99065.44;;;4.05;100.00
38812;BME280;24553;51.640;-0.752;2023-01-09T08:22:56;99072.28;;;4.06;100.00
38812;BME280;24553;51.640;-0.752;2023-01-09T08:25:22;99079.94;;;4.23;100.00
38812;BME280;24553;51.640;-0.752;2023-01-09T08:27:47;99071.00;;;4.17;100.00
38812;BME280;24553;51.640;-0.752;2023-01-09T08:30:14;99063.63;;;4.06;100.00
38812;BME280;24553;51.640;-0.752;2023-01-09T08:32:39;99071.66;;;4.04;100.00
38812;BME280;24553;51.640;-0.752;2023-01-09T08:35:06;99073.53;;;4.10;100.00
38812;BME280;24553;51.640;-0.752;2023-01-09T08:37:31;99089.91;;;4.27;100.00
38812;BME280;24553;51.640;-0.752;2023-01-09T08:39:57;99085.31;;;4.51;100.00
38812;BME280;24553;51.640;-0.752;2023-01-09T08:42:22;99085.41;;;4.57;100.00
38812;BME280;24553;51.640;-0.752;2023-01-09T08:45:08;99091.97;;;4.90;100.00
38812;BME280;24553;51.640;-0.752;2023-01-09T08:47:53;99090.63;;;5.00;100.00
38812;BME280;24553;51.640;-0.752;2023-01-09T08:50:18;99088.63;;;5.02;100.00
38812;BME280;24553;51.640;-0.752;2023-01-09T08:52:43;99091.50;;;5.08;100.00
38812;BME280;24553;51.640;-0.752;2023-01-09T08:55:09;99098.13;;;5.25;100.00
38812;BME280;24553;51.640;-0.752;2023-01-09T08:57:34;99108.50;;;5.33;100.00
38812;BME280;24553;51.640;-0.752;2023-01-09T09:00:00;99111.53;;;5.37;100.00
38812;BME280;24553;51.640;-0.752;2023-01-09T09:02:25;99107.59;;;5.47;100.00
38812;BME280;24553;51.640;-0.752;2023-01-09T09:04:50;99109.06;;;5.57;100.00
38812;BME280;24553;51.640;-0.752;2023-01-09T09:07:20;99100.06;;;5.73;100.00
38812;BME280;24553;51.640;-0.752;2023-01-09T09:09:51;99102.59;;;5.87;100.00
38812;BME280;24553;51.640;-0.752;2023-01-09T09:12:17;99106.56;;;5.77;100.00
38812;BME280;24553;51.640;-0.752;2023-01-09T09:14:42;99111.06;;;5.83;100.00
38812;BME280;24553;51.640;-0.752;2023-01-09T09:17:27;99112.31;;;5.87;100.00
38812;BME280;24553;51.640;-0.752;2023-01-09T09:19:53;99125.84;;;5.84;100.00
38812;BME280;24553;51.640;-0.752;2023-01-09T09:22:18;99120.25;;;5.94;100.00
38812;BME280;24553;51.640;-0.752;2023-01-09T09:24:43;99123.63;;;5.87;100.00
38812;BME280;24553;51.640;-0.752;2023-01-09T09:27:09;99136.06;;;5.72;100.00
38812;BME280;24553;51.640;-0.752;2023-01-09T09:29:34;99140.91;;;5.68;100.00
38812;BME280;24553;51.640;-0.752;2023-01-09T09:31:59;99136.56;;;5.82;100.00
38812;BME280;24553;51.640;-0.752;2023-01-09T09:34:25;99150.03;;;5.94;100.00
38812;BME280;24553;51.640;-0.752;2023-01-09T09:36:50;99144.78;;;6.01;100.00
38812;BME280;24553;51.640;-0.752;2023-01-09T09:39:15;99150.84;;;5.95;100.00
38812;BME280;24553;51.640;-0.752;2023-01-09T09:42:03;99163.19;;;5.94;100.00
38812;BME280;24553;51.640;-0.752;2023-01-09T09:48:05;99172.41;;;6.18;100.00
38812;BME280;24553;51.640;-0.752;2023-01-09T09:53:19;99200.13;;;6.14;100.00
38812;BME280;24553;51.640;-0.752;2023-01-09T09:55:48;99200.13;;;6.14;100.00
38812;BME280;24553;51.640;-0.752;2023-01-09T10:00:39;99212.31;;;6.22;100.00
38812;BME280;24553;51.640;-0.752;2023-01-09T10:03:12;99221.63;;;6.24;100.00
38812;BME280;24553;51.640;-0.752;2023-01-09T10:05:42;99215.84;;;6.36;100.00
38812;BME280;24553;51.640;-0.752;2023-01-09T10:08:29;99217.53;;;6.50;100.00
38812;BME280;24553;51.640;-0.752;2023-01-09T10:10:59;99227.09;;;6.58;100.00
38812;BME280;24553;51.640;-0.752;2023-01-09T10:13:24;99229.75;;;6.64;100.00
38812;BME280;24553;51.640;-0.752;2023-01-09T10:16:24;99247.53;;;6.55;100.00
38812;BME280;24553;51.640;-0.752;2023-01-09T10:22:05;99258.59;;;6.38;100.00
38812;BME280;24553;51.640;-0.752;2023-01-09T10:24:46;99262.84;;;6.39;100.00
38812;BME280;24553;51.640;-0.752;2023-01-09T10:33:22;99288.69;;;6.63;100.00
38812;BME280;24553;51.640;-0.752;2023-01-09T10:38:13;99291.44;;;6.76;100.00
38812;BME280;24553;51.640;-0.752;2023-01-09T10:40:48;99310.34;;;6.93;100.00
38812;BME280;24553;51.640;-0.752;2023-01-09T10:43:45;99305.50;;;6.97;100.00
38812;BME280;24553;51.640;-0.752;2023-01-09T10:46:24;99308.97;;;7.04;100.00
38812;BME280;24553;51.640;-0.752;2023-01-09T10:48:54;99312.06;;;7.14;100.00
38812;BME280;24553;51.640;-0.752;2023-01-09T10:51:28;99304.38;;;7.19;100.00
38812;BME280;24553;51.640;-0.752;2023-01-09T10:53:58;99309.31;;;7.36;100.00
38812;BME280;24553;51.640;-0.752;2023-01-09T10:56:31;99319.59;;;7.24;100.00
38812;BME280;24553;51.640;-0.752;2023-01-09T10:58:59;99311.94;;;7.42;100.00
38812;BME280;24553;51.640;-0.752;2023-01-09T11:01:27;99315.59;;;7.48;100.00
38812;BME280;24553;51.640;-0.752;2023-01-09T11:03:53;99313.41;;;7.52;100.00
38812;BME280;24553;51.640;-0.752;2023-01-09T11:06:21;99326.38;;;7.53;100.00
38812;BME280;24553;51.640;-0.752;2023-01-09T11:08:52;99323.91;;;7.45;100.00
38812;BME280;24553;51.640;-0.752;2023-01-09T11:11:39;99325.97;;;7.50;100.00
38812;BME280;24553;51.640;-0.752;2023-01-09T11:14:13;99340.19;;;7.55;100.00
38812;BME280;24553;51.640;-0.752;2023-01-09T11:16:51;99342.84;;;7.62;100.00
38812;BME280;24553;51.640;-0.752;2023-01-09T11:19:16;99344.88;;;7.73;100.00
38812;BME280;24553;51.640;-0.752;2023-01-09T11:21:42;99339.22;;;7.83;100.00
38812;BME280;24553;51.640;-0.752;2023-01-09T11:26:42;99343.69;;;7.89;100.00
38812;BME280;24553;51.640;-0.752;2023-01-09T11:29:13;99344.91;;;8.00;100.00
38812;BME280;24553;51.640;-0.752;2023-01-09T11:31:41;99338.63;;;8.07;100.00
38812;BME280;24553;51.640;-0.752;2023-01-09T11:34:18;99352.03;;;7.99;100.00
38812;BME280;24553;51.640;-0.752;2023-01-09T11:36:45;99361.56;;;7.87;100.00
38812;BME280;24553;51.640;-0.752;2023-01-09T11:39:25;99357.91;;;7.95;100.00
38812;BME280;24553;51.640;-0.752;2023-01-09T11:41:56;99354.88;;;8.04;100.00
38812;BME280;24553;51.640;-0.752;2023-01-09T11:44:23;99383.94;;;8.11;100.00
38812;BME280;24553;51.640;-0.752;2023-01-09T11:46:49;99365.88;;;8.21;100.00
38812;BME280;24553;51.640;-0.752;2023-01-09T11:51:41;99377.44;;;8.27;100.00
38812;BME280;24553;51.640;-0.752;2023-01-09T11:56:45;99387.00;;;8.21;100.00
38812;BME280;24553;51.640;-0.752;2023-01-09T11:59:17;99400.56;;;8.18;100.00
38812;BME280;24553;51.640;-0.752;2023-01-09T12:04:40;99396.06;;;7.92;100.00
38812;BME280;24553;51.640;-0.752;2023-01-09T12:12:33;99401.00;;;8.35;100.00
38812;BME280;24553;51.640;-0.752;2023-01-09T12:23:22;99421.31;;;8.15;100.00
38812;BME280;24553;51.640;-0.752;2023-01-09T12:26:02;99425.38;;;8.17;100.00
38812;BME280;24553;51.640;-0.752;2023-01-09T12:28:51;99439.22;;;8.33;100.00
38812;BME280;24553;51.640;-0.752;2023-01-09T12:36:55;99447.13;;;8.33;100.00
38812;BME280;24553;51.640;-0.752;2023-01-09T12:39:45;99447.38;;;8.51;100.00
38812;BME280;24553;51.640;-0.752;2023-01-09T12:45:09;99444.13;;;8.56;100.00
38812;BME280;24553;51.640;-0.752;2023-01-09T12:47:42;99466.06;;;8.69;100.00
38812;BME280;24553;51.640;-0.752;2023-01-09T12:53:04;99475.34;;;8.25;100.00
38812;BME280;24553;51.640;-0.752;2023-01-09T12:55:37;99469.41;;;8.10;100.00
38812;BME280;24553;51.640;-0.752;2023-01-09T12:58:30;99482.84;;;8.15;100.00
38812;BME280;24553;51.640;-0.752;2023-01-09T13:00:57;99485.66;;;8.00;100.00
38812;BME280;24553;51.640;-0.752;2023-01-09T13:03:32;99501.59;;;7.79;100.00
38812;BME280;24553;51.640;-0.752;2023-01-09T13:06:01;99501.38;;;7.67;100.00
38812;BME280;24553;51.640;-0.752;2023-01-09T13:11:11;99497.94;;;7.73;100.00
38812;BME280;24553;51.640;-0.752;2023-01-09T13:13:47;99507.28;;;7.76;100.00
38812;BME280;24553;51.640;-0.752;2023-01-09T13:16:20;99517.50;;;7.92;100.00
38812;BME280;24553;51.640;-0.752;2023-01-09T13:18:55;99523.75;;;7.84;100.00
38812;BME280;24553;51.640;-0.752;2023-01-09T13:21:23;99530.38;;;8.08;100.00
38812;BME280;24553;51.640;-0.752;2023-01-09T13:24:44;99528.56;;;8.22;100.00
38812;BME280;24553;51.640;-0.752;2023-01-09T13:26:52;99539.63;;;8.39;100.00
38812;BME280;24553;51.640;-0.752;2023-01-09T13:29:23;99533.03;;;8.28;100.00
38812;BME280;24553;51.640;-0.752;2023-01-09T13:34:50;99554.53;;;8.12;100.00
38812;BME280;24553;51.640;-0.752;2023-01-09T13:37:35;99566.53;;;8.08;100.00
38812;BME280;24553;51.640;-0.752;2023-01-09T13:40:05;99570.78;;;8.09;100.00
38812;BME280;24553;51.640;-0.752;2023-01-09T13:42:31;99596.38;;;8.08;100.00
38812;BME280;24553;51.640;-0.752;2023-01-09T13:45:19;99583.25;;;8.35;100.00
38812;BME280;24553;51.640;-0.752;2023-01-09T13:47:45;99577.22;;;8.41;100.00
38812;BME280;24553;51.640;-0.752;2023-01-09T13:50:23;99580.09;;;8.53;100.00
38812;BME280;24553;51.640;-0.752;2023-01-09T13:52:48;99587.63;;;8.49;100.00
38812;BME280;24553;51.640;-0.752;2023-01-09T13:57:44;99594.00;;;8.27;100.00
38812;BME280;24553;51.640;-0.752;2023-01-09T14:08:29;99622.72;;;7.95;100.00
38812;BME280;24553;51.640;-0.752;2023-01-09T14:11:01;99637.06;;;7.86;100.00
38812;BME280;24553;51.640;-0.752;2023-01-09T14:13:33;99645.88;;;7.72;100.00
38812;BME280;24553;51.640;-0.752;2023-01-09T14:16:22;99675.63;;;7.59;100.00
38812;BME280;24553;51.640;-0.752;2023-01-09T14:19:19;99660.72;;;7.45;100.00
38812;BME280;24553;51.640;-0.752;2023-01-09T14:21:52;99675.09;;;7.42;100.00
38812;BME280;24553;51.640;-0.752;2023-01-09T14:24:30;99670.97;;;7.61;100.00
38812;BME280;24553;51.640;-0.752;2023-01-09T14:26:58;99680.56;;;7.69;100.00
38812;BME280;24553;51.640;-0.752;2023-01-09T14:34:57;99707.53;;;7.92;100.00
38812;BME280;24553;51.640;-0.752;2023-01-09T14:37:26;99699.50;;;8.00;100.00
38812;BME280;24553;51.640;-0.752;2023-01-09T14:39:52;99699.34;;;8.08;100.00
38812;BME280;24553;51.640;-0.752;2023-01-09T14:42:23;99712.34;;;8.10;100.00
38812;BME280;24553;51.640;-0.752;2023-01-09T14:44:54;99721.28;;;8.16;100.00
38812;BME280;24553;51.640;-0.752;2023-01-09T14:50:15;99722.78;;;8.25;100.00
38812;BME280;24553;51.640;-0.752;2023-01-09T14:52:48;99730.91;;;8.23;100.00
38812;BME280;24553;51.640;-0.752;2023-01-09T14:55:36;99734.50;;;8.16;100.00